sensor_id;sensor_type;location;lat;lon;timestamp;pressure;altitude;pressure_sealevel;temperature;humidity
63927;BME280;50103;47.960;21.712;2023-01-30T06:03:53;100644.27;;;-0.69;96.06
63927;BME280;50103;47.960;21.712;2023-01-30T06:06:19;100641.20;;;-0.71;95.88
63927;BME280;50103;47.960;21.712;2023-01-30T06:08:45;100642.32;;;-0.75;95.78
63927;BME280;50103;47.960;21.712;2023-01-30T06:11:15;100647.28;;;-0.79;95.39
63927;BME280;50103;47.960;21.712;2023-01-30T06:13:42;100648.09;;;-0.82;95.22
63927;BME280;50103;47.960;21.712;2023-01-30T06:16:10;100645.01;;;-0.84;94.95
63927;BME280;50103;47.960;21.712;2023-01-30T06:18:37;100647.20;;;-0.89;95.00
63927;BME280;50103;47.960;21.712;2023-01-30T06:21:03;100653.20;;;-0.92;94.74
63927;BME280;50103;47.960;21.712;2023-01-30T06:23:30;100657.77;;;-0.95;94.79
63927;BME280;50103;47.960;21.712;2023-01-30T06:25:56;100652.85;;;-0.99;94.86
63927;BME280;50103;47.960;21.712;2023-01-30T06:28:22;100654.55;;;-1.05;94.97
63927;BME280;50103;47.960;21.712;2023-01-30T06:30:49;100648.19;;;-1.08;94.96
63927;BME280;50103;47.960;21.712;2023-01-30T06:33:15;100639.89;;;-1.09;95.09
63927;BME280;50103;47.960;21.712;2023-01-30T06:35:42;100634.02;;;-1.12;95.09
63927;BME280;50103;47.960;21.712;2023-01-30T06:38:08;100642.45;;;-1.15;95.09
63927;BME280;50103;47.960;21.712;2023-01-30T06:40:45;100647.27;;;-1.20;94.77
63927;BME280;50103;47.960;21.712;2023-01-30T06:43:11;100640.60;;;-1.25;94.69
63927;BME280;50103;47.960;21.712;2023-01-30T06:45:37;100643.59;;;-1.27;94.77
63927;BME280;50103;47.960;21.712;2023-01-30T06:48:03;100640.84;;;-1.28;94.77
63927;BME280;50103;47.960;21.712;2023-01-30T06:50:29;100643.30;;;-1.29;94.63
63927;BME280;50103;47.960;21.712;2023-01-30T06:52:55;100639.86;;;-1.30;94.17
63927;BME280;50103;47.960;21.712;2023-01-30T06:55:24;100640.24;;;-1.31;93.77
63927;BME280;50103;47.960;21.712;2023-01-30T06:58:20;100644.89;;;-1.30;93.59
63927;BME280;50103;47.960;21.712;2023-01-30T07:00:45;100639.70;;;-1.30;92.54
63927;BME280;50103;47.960;21.712;2023-01-30T07:03:15;100642.06;;;-1.35;91.57
63927;BME280;50103;47.960;21.712;2023-01-30T07:05:43;100647.89;;;-1.40;91.62
63927;BME280;50103;47.960;21.712;2023-01-30T07:08:10;100638.04;;;-1.42;91.72
63927;BME280;50103;47.960;21.712;2023-01-30T07:10:36;100629.69;;;-1.41;91.75
63927;BME280;50103;47.960;21.712;2023-01-30T07:13:02;100629.34;;;-1.41;91.50
63927;BME280;50103;47.960;21.712;2023-01-30T07:15:32;100629.37;;;-1.43;91.44
63927;BME280;50103;47.960;21.712;2023-01-30T07:18:01;100628.05;;;-1.45;91.40
63927;BME280;50103;47.960;21.712;2023-01-30T07:20:27;100627.58;;;-1.47;91.49
63927;BME280;50103;47.960;21.712;2023-01-30T07:22:55;100629.25;;;-1.45;91.35
63927;BME280;50103;47.960;21.712;2023-01-30T07:25:23;100625.09;;;-1.45;91.08
63927;BME280;50103;47.960;21.712;2023-01-30T07:27:57;100620.94;;;-1.46;90.86
63927;BME280;50103;47.960;21.712;2023-01-30T07:30:30;100616.38;;;-1.44;90.21
63927;BME280;50103;47.960;21.712;2023-01-30T07:32:57;100614.27;;;-1.43;89.91
63927;BME280;50103;47.960;21.712;2023-01-30T07:35:24;100607.98;;;-1.42;89.27
63927;BME280;50103;47.960;21.712;2023-01-30T07:37:50;100599.14;;;-1.42;88.78
63927;BME280;50103;47.960;21.712;2023-01-30T07:40:17;100593.20;;;-1.40;88.72
63927;BME280;50103;47.960;21.712;2023-01-30T07:42:49;100586.52;;;-1.36;88.34
63927;BME280;50103;47.960;21.712;2023-01-30T07:45:19;100582.05;;;-1.31;88.16
63927;BME280;50103;47.960;21.712;2023-01-30T07:47:45;100575.65;;;-1.26;87.66
63927;BME280;50103;47.960;21.712;2023-01-30T07:50:10;100579.55;;;-1.21;87.50
63927;BME280;50103;47.960;21.712;2023-01-30T07:52:37;100582.07;;;-1.17;86.88
63927;BME280;50103;47.960;21.712;2023-01-30T07:55:03;100582.00;;;-1.15;86.94
63927;BME280;50103;47.960;21.712;2023-01-30T07:57:29;100579.14;;;-1.12;86.66
63927;BME280;50103;47.960;21.712;2023-01-30T07:59:54;100574.50;;;-1.08;86.06
63927;BME280;50103;47.960;21.712;2023-01-30T08:02:20;100563.70;;;-1.07;86.06
63927;BME280;50103;47.960;21.712;2023-01-30T08:04:46;100558.06;;;-1.03;86.02
63927;BME280;50103;47.960;21.712;2023-01-30T08:07:11;100560.05;;;-0.99;85.61
63927;BME280;50103;47.960;21.712;2023-01-30T08:09:37;100553.91;;;-0.97;85.19
63927;BME280;50103;47.960;21.712;2023-01-30T08:12:02;100556.53;;;-0.98;85.14
63927;BME280;50103;47.960;21.712;2023-01-30T08:14:28;100563.46;;;-0.97;84.94
63927;BME280;50103;47.960;21.712;2023-01-30T08:16:55;100567.15;;;-0.98;84.35
63927;BME280;50103;47.960;21.712;2023-01-30T08:19:21;100573.52;;;-1.03;84.03
63927;BME280;50103;47.960;21.712;2023-01-30T08:24:47;100569.63;;;-0.99;84.94
63927;BME280;50103;47.960;21.712;2023-01-30T08:27:12;100571.24;;;-0.96;85.11
63927;BME280;50103;47.960;21.712;2023-01-30T08:29:38;100565.40;;;-0.91;85.03
63927;BME280;50103;47.960;21.712;2023-01-30T08:32:04;100556.02;;;-0.92;84.82
63927;BME280;50103;47.960;21.712;2023-01-30T08:34:30;100553.82;;;-0.94;84.82
63927;BME280;50103;47.960;21.712;2023-01-30T08:36:56;100548.64;;;-0.95;85.38
63927;BME280;50103;47.960;21.712;2023-01-30T08:39:21;100539.20;;;-0.93;85.54
63927;BME280;50103;47.960;21.712;2023-01-30T08:41:47;100542.10;;;-0.91;85.28
63927;BME280;50103;47.960;21.712;2023-01-30T08:44:12;100541.79;;;-0.93;85.32
63927;BME280;50103;47.960;21.712;2023-01-30T08:46:38;100539.91;;;-0.94;85.46
63927;BME280;50103;47.960;21.712;2023-01-30T08:49:04;100535.02;;;-0.93;85.70
63927;BME280;50103;47.960;21.712;2023-01-30T08:51:31;100528.87;;;-0.90;85.60
63927;BME280;50103;47.960;21.712;2023-01-30T08:53:57;100525.69;;;-0.88;85.51
63927;BME280;50103;47.960;21.712;2023-01-30T08:56:22;100522.40;;;-0.89;85.44
63927;BME280;50103;47.960;21.712;2023-01-30T08:58:49;100519.60;;;-0.88;85.68
63927;BME280;50103;47.960;21.712;2023-01-30T09:01:15;100511.70;;;-0.84;85.80
63927;BME280;50103;47.960;21.712;2023-01-30T09:03:41;100505.20;;;-0.77;85.46
63927;BME280;50103;47.960;21.712;2023-01-30T09:06:07;100502.27;;;-0.71;84.88
63927;BME280;50103;47.960;21.712;2023-01-30T09:08:34;100494.38;;;-0.68;84.80
63927;BME280;50103;47.960;21.712;2023-01-30T09:11:02;100481.29;;;-0.60;84.53
63927;BME280;50103;47.960;21.712;2023-01-30T09:13:28;100481.70;;;-0.51;84.95
63927;BME280;50103;47.960;21.712;2023-01-30T09:15:55;100480.66;;;-0.39;84.88
63927;BME280;50103;47.960;21.712;2023-01-30T09:18:22;100483.24;;;-0.32;84.20
63927;BME280;50103;47.960;21.712;2023-01-30T09:20:48;100481.20;;;-0.33;84.13
63927;BME280;50103;47.960;21.712;2023-01-30T09:23:13;100471.00;;;-0.36;84.15
63927;BME280;50103;47.960;21.712;2023-01-30T09:25:39;100459.49;;;-0.41;84.40
63927;BME280;50103;47.960;21.712;2023-01-30T09:28:06;100451.24;;;-0.45;84.39
63927;BME280;50103;47.960;21.712;2023-01-30T09:30:36;100446.23;;;-0.46;84.45
63927;BME280;50103;47.960;21.712;2023-01-30T09:33:02;100440.16;;;-0.46;84.45
63927;BME280;50103;47.960;21.712;2023-01-30T09:35:28;100431.02;;;-0.48;84.31
63927;BME280;50103;47.960;21.712;2023-01-30T09:37:54;100430.85;;;-0.54;84.06
63927;BME280;50103;47.960;21.712;2023-01-30T09:40:24;100426.13;;;-0.59;84.26
63927;BME280;50103;47.960;21.712;2023-01-30T09:45:58;100433.17;;;-0.62;84.02
63927;BME280;50103;47.960;21.712;2023-01-30T09:48:49;100421.35;;;-0.63;84.33
63927;BME280;50103;47.960;21.712;2023-01-30T09:51:34;100415.54;;;-0.60;84.16
63927;BME280;50103;47.960;21.712;2023-01-30T09:54:28;100408.23;;;-0.59;84.46
63927;BME280;50103;47.960;21.712;2023-01-30T10:05:51;100402.52;;;-0.55;84.09
63927;BME280;50103;47.960;21.712;2023-01-30T10:11:17;100399.13;;;-0.63;84.32
63927;BME280;50103;47.960;21.712;2023-01-30T10:22:53;100371.91;;;-0.66;85.41
63927;BME280;50103;47.960;21.712;2023-01-30T10:25:43;100370.77;;;-0.64;85.56
63927;BME280;50103;47.960;21.712;2023-01-30T10:28:30;100371.16;;;-0.64;85.25
63927;BME280;50103;47.960;21.712;2023-01-30T10:31:09;100370.20;;;-0.73;85.40
63927;BME280;50103;47.960;21.712;2023-01-30T10:33:44;100369.56;;;-0.75;85.62
63927;BME280;50103;47.960;21.712;2023-01-30T10:36:25;100358.40;;;-0.74;85.90
63927;BME280;50103;47.960;21.712;2023-01-30T10:38:53;100348.12;;;-0.67;86.08
63927;BME280;50103;47.960;21.712;2023-01-30T10:42:11;100342.36;;;-0.61;85.81
63927;BME280;50103;47.960;21.712;2023-01-30T10:44:37;100337.64;;;-0.54;85.82
63927;BME280;50103;47.960;21.712;2023-01-30T10:47:38;100326.73;;;-0.46;85.78
63927;BME280;50103;47.960;21.712;2023-01-30T10:50:14;100313.88;;;-0.34;85.62
63927;BME280;50103;47.960;21.712;2023-01-30T10:52:58;100315.56;;;-0.28;85.37
63927;BME280;50103;47.960;21.712;2023-01-30T10:56:20;100304.27;;;-0.28;85.38
63927;BME280;50103;47.960;21.712;2023-01-30T10:59:00;100304.93;;;-0.27;85.63
63927;BME280;50103;47.960;21.712;2023-01-30T11:01:46;100296.05;;;-0.21;85.60
63927;BME280;50103;47.960;21.712;2023-01-30T11:04:39;100283.06;;;-0.18;85.67
63927;BME280;50103;47.960;21.712;2023-01-30T11:07:08;100270.17;;;-0.13;85.90
63927;BME280;50103;47.960;21.712;2023-01-30T11:09:47;100256.35;;;-0.06;85.73
63927;BME280;50103;47.960;21.712;2023-01-30T11:12:13;100242.80;;;-0.06;85.28
63927;BME280;50103;47.960;21.712;2023-01-30T11:15:12;100239.54;;;-0.08;85.34
63927;BME280;50103;47.960;21.712;2023-01-30T11:17:43;100239.06;;;-0.09;85.56
63927;BME280;50103;47.960;21.712;2023-01-30T11:20:21;100234.05;;;-0.10;85.66
63927;BME280;50103;47.960;21.712;2023-01-30T11:23:21;100233.81;;;-0.08;85.81
63927;BME280;50103;47.960;21.712;2023-01-30T11:25:50;100230.27;;;-0.06;85.85
63927;BME280;50103;47.960;21.712;2023-01-30T11:28:16;100223.63;;;-0.05;86.21
63927;BME280;50103;47.960;21.712;2023-01-30T11:30:50;100216.35;;;-0.07;86.24
63927;BME280;50103;47.960;21.712;2023-01-30T11:33:18;100205.63;;;-0.03;86.57
63927;BME280;50103;47.960;21.712;2023-01-30T11:35:54;100196.71;;;0.03;86.50
63927;BME280;50103;47.960;21.712;2023-01-30T11:38:26;100189.55;;;0.08;86.53
63927;BME280;50103;47.960;21.712;2023-01-30T11:44:07;100171.81;;;0.13;86.44
63927;BME280;50103;47.960;21.712;2023-01-30T11:47:00;100157.92;;;0.16;86.61
63927;BME280;50103;47.960;21.712;2023-01-30T11:49:31;100153.58;;;0.21;86.58
63927;BME280;50103;47.960;21.712;2023-01-30T11:51:58;100154.02;;;0.23;86.67
63927;BME280;50103;47.960;21.712;2023-01-30T11:54:33;100151.92;;;0.28;86.59
63927;BME280;50103;47.960;21.712;2023-01-30T11:57:02;100150.07;;;0.35;86.36
63927;BME280;50103;47.960;21.712;2023-01-30T11:59:41;100147.58;;;0.42;86.57
63927;BME280;50103;47.960;21.712;2023-01-30T12:02:51;100143.09;;;0.45;86.65
63927;BME280;50103;47.960;21.712;2023-01-30T12:05:33;100145.30;;;0.47;86.74
63927;BME280;50103;47.960;21.712;2023-01-30T12:08:21;100141.00;;;0.45;86.82
63927;BME280;50103;47.960;21.712;2023-01-30T12:10:56;100134.55;;;0.41;86.97
63927;BME280;50103;47.960;21.712;2023-01-30T12:13:30;100126.94;;;0.39;87.01
63927;BME280;50103;47.960;21.712;2023-01-30T12:16:16;100117.62;;;0.37;87.12
63927;BME280;50103;47.960;21.712;2023-01-30T12:18:50;100110.29;;;0.37;87.48
63927;BME280;50103;47.960;21.712;2023-01-30T12:21:37;100108.73;;;0.37;87.64
63927;BME280;50103;47.960;21.712;2023-01-30T12:27:05;100101.27;;;0.41;87.32
63927;BME280;50103;47.960;21.712;2023-01-30T12:29:38;100094.89;;;0.39;87.16
63927;BME280;50103;47.960;21.712;2023-01-30T12:32:14;100089.13;;;0.40;87.17
63927;BME280;50103;47.960;21.712;2023-01-30T12:34:41;100086.67;;;0.40;86.97
63927;BME280;50103;47.960;21.712;2023-01-30T12:37:48;100081.21;;;0.42;87.16
63927;BME280;50103;47.960;21.712;2023-01-30T12:41:42;100076.08;;;0.44;87.44
63927;BME280;50103;47.960;21.712;2023-01-30T12:43:47;100067.16;;;0.45;87.50
63927;BME280;50103;47.960;21.712;2023-01-30T12:52:38;100066.39;;;0.50;87.92
63927;BME280;50103;47.960;21.712;2023-01-30T12:55:23;100060.39;;;0.53;88.32
63927;BME280;50103;47.960;21.712;2023-01-30T12:58:00;100053.59;;;0.53;88.45
63927;BME280;50103;47.960;21.712;2023-01-30T13:05:59;100046.96;;;0.49;89.61
63927;BME280;50103;47.960;21.712;2023-01-30T13:08:57;100043.77;;;0.50;89.68
63927;BME280;50103;47.960;21.712;2023-01-30T13:11:45;100039.96;;;0.49;90.07
63927;BME280;50103;47.960;21.712;2023-01-30T13:28:36;100022.36;;;0.58;90.83
63927;BME280;50103;47.960;21.712;2023-01-30T13:31:05;100019.86;;;0.60;90.95
63927;BME280;50103;47.960;21.712;2023-01-30T13:33:36;100020.33;;;0.61;90.87
63927;BME280;50103;47.960;21.712;2023-01-30T13:36:05;100022.32;;;0.64;90.70
63927;BME280;50103;47.960;21.712;2023-01-30T13:38:39;100023.41;;;0.63;90.28
63927;BME280;50103;47.960;21.712;2023-01-30T13:41:08;100021.69;;;0.62;90.05
63927;BME280;50103;47.960;21.712;2023-01-30T13:43:45;100016.06;;;0.63;90.00
63927;BME280;50103;47.960;21.712;2023-01-30T13:46:17;100015.98;;;0.65;89.47
63927;BME280;50103;47.960;21.712;2023-01-30T13:49:03;100018.58;;;0.65;89.32
63927;BME280;50103;47.960;21.712;2023-01-30T13:51:42;100016.98;;;0.66;89.34
63927;BME280;50103;47.960;21.712;2023-01-30T13:54:37;100012.92;;;0.67;89.02
63927;BME280;50103;47.960;21.712;2023-01-30T14:00:29;100018.97;;;0.68;89.03
63927;BME280;50103;47.960;21.712;2023-01-30T14:03:21;100018.61;;;0.69;88.98
63927;BME280;50103;47.960;21.712;2023-01-30T14:06:13;100011.55;;;0.71;88.86
63927;BME280;50103;47.960;21.712;2023-01-30T14:08:53;100005.06;;;0.72;88.86
63927;BME280;50103;47.960;21.712;2023-01-30T14:11:35;100001.36;;;0.73;88.92
63927;BME280;50103;47.960;21.712;2023-01-30T14:16:46;100007.21;;;0.75;88.83
63927;BME280;50103;47.960;21.712;2023-01-30T14:30:47;99998.78;;;0.77;89.72
63927;BME280;50103;47.960;21.712;2023-01-30T14:38:32;100002.33;;;0.79;90.25
63927;BME280;50103;47.960;21.712;2023-01-30T14:43:34;99993.80;;;0.83;90.33
63927;BME280;50103;47.960;21.712;2023-01-30T14:46:03;99990.98;;;0.83;90.41
63927;BME280;50103;47.960;21.712;2023-01-30T14:59:40;99986.37;;;0.90;90.98
63927;BME280;50103;47.960;21.712;2023-01-30T15:02:27;99979.18;;;0.91;90.94
63927;BME280;50103;47.960;21.712;2023-01-30T15:05:04;99983.80;;;0.93;91.03
63927;BME280;50103;47.960;21.712;2023-01-30T15:07:43;99978.19;;;0.94;91.21
63927;BME280;50103;47.960;21.712;2023-01-30T15:19:41;99970.33;;;0.94;91.17
63927;BME280;50103;47.960;21.712;2023-01-30T15:22:36;99951.96;;;0.96;91.16
63927;BME280;50103;47.960;21.712;2023-01-30T15:28:32;99953.56;;;0.95;91.23
63927;BME280;50103;47.960;21.712;2023-01-30T15:31:14;99951.87;;;0.94;91.22
63927;BME280;50103;47.960;21.712;2023-01-30T15:33:47;99957.35;;;0.92;91.45
63927;BME280;50103;47.960;21.712;2023-01-30T15:38:42;99958.98;;;0.95;91.76
63927;BME280;50103;47.960;21.712;2023-01-30T15:41:09;99950.92;;;0.96;91.77
63927;BME280;50103;47.960;21.712;2023-01-30T15:44:23;99940.44;;;0.96;91.83
63927;BME280;50103;47.960;21.712;2023-01-30T15:50:00;99947.83;;;0.95;91.94
63927;BME280;50103;47.960;21.712;2023-01-30T15:55:01;99952.54;;;0.94;92.06
63927;BME280;50103;47.960;21.712;2023-01-30T15:57:31;99946.59;;;0.95;92.23
63927;BME280;50103;47.960;21.712;2023-01-30T15:59:59;99952.77;;;0.97;92.43
63927;BME280;50103;47.960;21.712;2023-01-30T16:02:33;99962.75;;;0.96;92.81
63927;BME280;50103;47.960;21.712;2023-01-30T16:05:13;99959.56;;;0.93;93.03
63927;BME280;50103;47.960;21.712;2023-01-30T16:07:40;99958.54;;;0.88;93.31
63927;BME280;50103;47.960;21.712;2023-01-30T16:10:17;99960.49;;;0.87;93.57
63927;BME280;50103;47.960;21.712;2023-01-30T16:12:44;99957.39;;;0.87;94.08
63927;BME280;50103;47.960;21.712;2023-01-30T16:18:03;99966.38;;;0.84;94.69
63927;BME280;50103;47.960;21.712;2023-01-30T16:20:40;99970.07;;;0.84;94.92
63927;BME280;50103;47.960;21.712;2023-01-30T16:23:18;99964.95;;;0.81;94.94
63927;BME280;50103;47.960;21.712;2023-01-30T16:25:46;99967.11;;;0.80;95.08
63927;BME280;50103;47.960;21.712;2023-01-30T16:28:18;99962.98;;;0.79;94.88
63927;BME280;50103;47.960;21.712;2023-01-30T16:30:44;99958.71;;;0.81;95.07
63927;BME280;50103;47.960;21.712;2023-01-30T16:33:14;99952.74;;;0.82;95.14
63927;BME280;50103;47.960;21.712;2023-01-30T16:35:44;99947.81;;;0.82;95.30
63927;BME280;50103;47.960;21.712;2023-01-30T16:40:55;99951.65;;;0.82;95.23
63927;BME280;50103;47.960;21.712;2023-01-30T16:43:23;99955.17;;;0.82;95.13
63927;BME280;50103;47.960;21.712;2023-01-30T16:50:45;99958.88;;;0.81;95.47
63927;BME280;50103;47.960;21.712;2023-01-30T16:53:13;99958.55;;;0.80;95.51
63927;BME280;50103;47.960;21.712;2023-01-30T16:55:57;99960.08;;;0.81;95.50
63927;BME280;50103;47.960;21.712;2023-01-30T16:58:25;99958.23;;;0.80;95.56
63927;BME280;50103;47.960;21.712;2023-01-30T17:00:53;99949.60;;;0.78;95.43
63927;BME280;50103;47.960;21.712;2023-01-30T17:03:23;99941.80;;;0.77;95.52
63927;BME280;50103;47.960;21.712;2023-01-30T17:05:49;99939.87;;;0.77;95.67
63927;BME280;50103;47.960;21.712;2023-01-30T17:08:56;99934.63;;;0.78;95.79
63927;BME280;50103;47.960;21.712;2023-01-30T17:11:37;99921.86;;;0.79;95.92
63927;BME280;50103;47.960;21.712;2023-01-30T17:19:28;99902.62;;;0.76;95.94
63927;BME280;50103;47.960;21.712;2023-01-30T17:21:58;99911.34;;;0.76;95.98
63927;BME280;50103;47.960;21.712;2023-01-30T17:24:25;99916.03;;;0.77;96.12
63927;BME280;50103;47.960;21.712;2023-01-30T17:26:54;99918.40;;;0.78;96.14
63927;BME280;50103;47.960;21.712;2023-01-30T17:29:24;99908.59;;;0.79;96.28
63927;BME280;50103;47.960;21.712;2023-01-30T17:31:51;99907.86;;;0.80;96.39
63927;BME280;50103;47.960;21.712;2023-01-30T17:34:17;99902.27;;;0.81;96.60
63927;BME280;50103;47.960;21.712;2023-01-30T17:36:48;99897.07;;;0.80;96.46
63927;BME280;50103;47.960;21.712;2023-01-30T17:39:18;99906.55;;;0.78;96.60
63927;BME280;50103;47.960;21.712;2023-01-30T17:41:44;99910.30;;;0.76;96.81
63927;BME280;50103;47.960;21.712;2023-01-30T17:44:11;99912.55;;;0.76;96.79
63927;BME280;50103;47.960;21.712;2023-01-30T17:46:42;99915.70;;;0.76;97.32
63927;BME280;50103;47.960;21.712;2023-01-30T17:49:18;99912.74;;;0.76;97.58
63927;BME280;50103;47.960;21.712;2023-01-30T17:51:44;99908.77;;;0.75;97.67
63927;BME280;50103;47.960;21.712;2023-01-30T17:54:11;99908.14;;;0.73;97.85
63927;BME280;50103;47.960;21.712;2023-01-30T17:56:39;99906.66;;;0.71;97.95
63927;BME280;50103;47.960;21.712;2023-01-30T17:59:18;99911.04;;;0.70;97.80
63927;BME280;50103;47.960;21.712;2023-01-30T18:01:46;99912.35;;;0.68;98.08
63927;BME280;50103;47.960;21.712;2023-01-30T18:04:12;99911.15;;;0.68;98.16
63927;BME280;50103;47.960;21.712;2023-01-30T18:06:39;99907.79;;;0.69;98.40
63927;BME280;50103;47.960;21.712;2023-01-30T18:09:06;99911.08;;;0.69;98.57
63927;BME280;50103;47.960;21.712;2023-01-30T18:11:31;99914.02;;;0.70;98.33
63927;BME280;50103;47.960;21.712;2023-01-30T18:13:57;99914.53;;;0.70;98.51
63927;BME280;50103;47.960;21.712;2023-01-30T18:16:25;99913.88;;;0.69;98.31
63927;BME280;50103;47.960;21.712;2023-01-30T18:19:00;99908.64;;;0.69;98.48
63927;BME280;50103;47.960;21.712;2023-01-30T18:21:31;99899.92;;;0.70;98.69
63927;BME280;50103;47.960;21.712;2023-01-30T18:23:57;99897.24;;;0.72;98.62
63927;BME280;50103;47.960;21.712;2023-01-30T18:26:23;99901.87;;;0.73;98.89
63927;BME280;50103;47.960;21.712;2023-01-30T18:28:48;99906.55;;;0.74;99.02
63927;BME280;50103;47.960;21.712;2023-01-30T18:31:14;99908.64;;;0.74;99.13
63927;BME280;50103;47.960;21.712;2023-01-30T18:33:41;99906.73;;;0.74;98.90
63927;BME280;50103;47.960;21.712;2023-01-30T18:36:11;99900.43;;;0.74;99.00
63927;BME280;50103;47.960;21.712;2023-01-30T18:38:37;99897.80;;;0.75;99.20
63927;BME280;50103;47.960;21.712;2023-01-30T18:41:11;99897.90;;;0.76;99.16
63927;BME280;50103;47.960;21.712;2023-01-30T18:43:37;99905.13;;;0.79;99.31
63927;BME280;50103;47.960;21.712;2023-01-30T18:46:09;99907.14;;;0.81;99.31
63927;BME280;50103;47.960;21.712;2023-01-30T18:48:35;99908.11;;;0.82;99.14
63927;BME280;50103;47.960;21.712;2023-01-30T18:51:24;99907.56;;;0.82;99.09
63927;BME280;50103;47.960;21.712;2023-01-30T18:53:51;99907.05;;;0.82;99.20
63927;BME280;50103;47.960;21.712;2023-01-30T18:56:21;99907.74;;;0.82;99.35
63927;BME280;50103;47.960;21.712;2023-01-30T18:58:47;99915.04;;;0.83;99.47
63927;BME280;50103;47.960;21.712;2023-01-30T19:01:26;99911.04;;;0.82;99.53
63927;BME280;50103;47.960;21.712;2023-01-30T19:03:56;99911.83;;;0.85;99.46
63927;BME280;50103;47.960;21.712;2023-01-30T19:06:23;99912.18;;;0.85;99.65
63927;BME280;50103;47.960;21.712;2023-01-30T19:08:49;99913.39;;;0.85;99.60
63927;BME280;50103;47.960;21.712;2023-01-30T19:11:18;99904.02;;;0.84;99.52
63927;BME280;50103;47.960;21.712;2023-01-30T19:14:04;99895.52;;;0.83;99.57
63927;BME280;50103;47.960;21.712;2023-01-30T19:16:31;99895.27;;;0.84;99.64
63927;BME280;50103;47.960;21.712;2023-01-30T19:18:57;99891.60;;;0.85;99.85
63927;BME280;50103;47.960;21.712;2023-01-30T19:21:23;99890.20;;;0.85;99.80
63927;BME280;50103;47.960;21.712;2023-01-30T19:23:49;99894.58;;;0.84;99.79
63927;BME280;50103;47.960;21.712;2023-01-30T19:26:16;99897.64;;;0.82;99.89
63927;BME280;50103;47.960;21.712;2023-01-30T19:28:42;99890.06;;;0.81;99.99
63927;BME280;50103;47.960;21.712;2023-01-30T19:31:11;99887.32;;;0.80;99.99
63927;BME280;50103;47.960;21.712;2023-01-30T19:33:40;99897.98;;;0.79;99.92
63927;BME280;50103;47.960;21.712;2023-01-30T19:36:18;99910.84;;;0.80;99.99
63927;BME280;50103;47.960;21.712;2023-01-30T19:38:45;99917.46;;;0.80;100.00
63927;BME280;50103;47.960;21.712;2023-01-30T19:41:14;99922.31;;;0.81;100.00
63927;BME280;50103;47.960;21.712;2023-01-30T19:43:40;99922.50;;;0.80;100.00
63927;BME280;50103;47.960;21.712;2023-01-30T19:46:07;99911.90;;;0.79;100.00
63927;BME280;50103;47.960;21.712;2023-01-30T19:48:37;99905.67;;;0.78;100.00
63927;BME280;50103;47.960;21.712;2023-01-30T19:51:29;99896.61;;;0.79;100.00
63927;BME280;50103;47.960;21.712;2023-01-30T19:54:14;99901.41;;;0.80;100.00
63927;BME280;50103;47.960;21.712;2023-01-30T19:56:40;99904.82;;;0.81;100.00
63927;BME280;50103;47.960;21.712;2023-01-30T19:59:07;99908.48;;;0.81;100.00
